Time;durP1;ratioP1;P1;durP2;ratioP2;P2;SDS_P1;SDS_P2;PMS_P1;PMS_P2;Temp;Humidity;BMP_temperature;BMP_pressure;BME280_temperature;BME280_humidity;BME280_pressure;Samples;Min_cycle;Max_cycle;Signal;HPM_P1;HPM_P2
2021/06/07 00:01:39;;;;;;;0.00;0.00;;;;;;;;;;5076245;28;20681;-61
2021/06/07 00:04:07;;;;;;;0.00;0.00;;;;;;;;;;5065463;28;20277;-61
2021/06/07 00:06:34;;;;;;;1.33;1.27;;;;;;;;;;5074655;28;20685;-60
2021/06/07 00:09:04;;;;;;;0.00;0.00;;;;;;;;;;5059255;28;20205;-60
2021/06/07 00:11:31;;;;;;;0.00;0.00;;;;;;;;;;5074643;28;20216;-61
2021/06/07 00:13:57;;;;;;;0.20;0.20;;;;;;;;;;5066896;28;20192;-61
2021/06/07 00:16:24;;;;;;;0.47;0.40;;;;;;;;;;5076495;28;20278;-60
2021/06/07 00:18:50;;;;;;;0.00;0.00;;;;;;;;;;5078895;28;20279;-61
2021/06/07 00:21:22;;;;;;;0.13;0.13;;;;;;;;;;5075189;28;20550;-60
2021/06/07 00:23:50;;;;;;;0.07;0.07;;;;;;;;;;5070959;28;20297;-60
2021/06/07 00:26:16;;;;;;;0.23;0.23;;;;;;;;;;5059586;28;20269;-61
2021/06/07 00:28:43;;;;;;;0.00;0.00;;;;;;;;;;5062238;28;20490;-61
2021/06/07 00:31:10;;;;;;;1.17;0.97;;;;;;;;;;5059666;28;20821;-61
2021/06/07 00:33:37;;;;;;;0.10;0.10;;;;;;;;;;5069641;28;20184;-61
2021/06/07 00:36:06;;;;;;;0.50;0.50;;;;;;;;;;5067642;28;20201;-60
2021/06/07 00:38:32;;;;;;;0.00;0.00;;;;;;;;;;5072121;28;20448;-61
2021/06/07 00:41:00;;;;;;;0.47;0.10;;;;;;;;;;5076855;28;20996;-60
2021/06/07 00:43:26;;;;;;;2.70;0.87;;;;;;;;;;5075041;28;20294;-60
2021/06/07 00:45:53;;;;;;;0.20;0.20;;;;;;;;;;5075355;28;20638;-61
2021/06/07 00:48:21;;;;;;;3.70;1.50;;;;;;;;;;5074763;28;20247;-61
2021/06/07 00:50:51;;;;;;;0.00;0.00;;;;;;;;;;5075229;28;21003;-61
2021/06/07 00:53:18;;;;;;;1.07;0.67;;;;;;;;;;5073267;28;20352;-61
2021/06/07 00:55:51;;;;;;;0.00;0.00;;;;;;;;;;5072523;28;20470;-60
2021/06/07 00:58:20;;;;;;;5.13;0.93;;;;;;;;;;5072260;28;20274;-61
2021/06/07 01:00:47;;;;;;;0.20;0.13;;;;;;;;;;5074583;28;20673;-60
2021/06/07 01:03:14;;;;;;;0.20;0.10;;;;;;;;;;5071715;28;20221;-61
2021/06/07 01:05:42;;;;;;;3.33;0.77;;;;;;;;;;5075553;28;20637;-60
2021/06/07 01:08:09;;;;;;;0.07;0.07;;;;;;;;;;5064576;28;20184;-61
2021/06/07 01:10:35;;;;;;;0.40;0.30;;;;;;;;;;5070195;28;20299;-60
2021/06/07 01:13:02;;;;;;;6.53;0.20;;;;;;;;;;5070558;28;20522;-60
2021/06/07 01:15:29;;;;;;;0.57;0.23;;;;;;;;;;5074503;28;20697;-60
2021/06/07 01:17:55;;;;;;;0.23;0.23;;;;;;;;;;5073175;28;20809;-60
2021/06/07 01:20:23;;;;;;;1.07;0.77;;;;;;;;;;5072183;28;20187;-60
2021/06/07 01:22:50;;;;;;;0.03;0.03;;;;;;;;;;5070476;28;20232;-61
2021/06/07 01:25:20;;;;;;;0.00;0.00;;;;;;;;;;5083013;28;20181;-61
2021/06/07 01:27:47;;;;;;;3.00;0.30;;;;;;;;;;5072375;28;20203;-60
2021/06/07 01:30:15;;;;;;;1.80;0.83;;;;;;;;;;5075485;28;20216;-60
2021/06/07 01:32:42;;;;;;;1.60;0.60;;;;;;;;;;5069712;28;20185;-60
2021/06/07 01:35:09;;;;;;;0.10;0.10;;;;;;;;;;5061972;28;20185;-60
2021/06/07 01:37:37;;;;;;;0.67;0.67;;;;;;;;;;5067344;28;20224;-61
2021/06/07 14:05:45;;;;;;;0.67;0.67;;;;;;;;;;5077334;27;20634;-62
2021/06/07 14:08:18;;;;;;;4.73;1.30;;;;;;;;;;5073036;28;20695;-63
2021/06/07 14:10:44;;;;;;;0.00;0.00;;;;;;;;;;5070373;28;20431;-63
2021/06/07 14:13:11;;;;;;;0.07;0.03;;;;;;;;;;5070948;28;20182;-63
2021/06/07 14:15:37;;;;;;;2.90;0.57;;;;;;;;;;5071083;28;20724;-63
2021/06/07 14:18:04;;;;;;;3.33;2.67;;;;;;;;;;5072542;28;20186;-63
2021/06/07 14:20:30;;;;;;;3.00;0.20;;;;;;;;;;5072135;28;20186;-63
2021/06/07 14:25:42;;;;;;;0.00;0.00;;;;;;;;;;5073515;28;20367;-63
2021/06/07 14:28:10;;;;;;;0.23;0.23;;;;;;;;;;5072069;28;20206;-63
2021/06/07 14:30:45;;;;;;;1.30;0.10;;;;;;;;;;5072516;28;20649;-64
2021/06/07 14:33:12;;;;;;;0.43;0.43;;;;;;;;;;5072849;28;20229;-65
2021/06/07 14:35:43;;;;;;;1.23;0.77;;;;;;;;;;5072474;28;20178;-64
2021/06/07 14:38:11;;;;;;;3.17;0.60;;;;;;;;;;5073174;28;20510;-64
2021/06/07 14:40:39;;;;;;;0.77;0.77;;;;;;;;;;5072712;28;20186;-62
2021/06/07 14:43:06;;;;;;;2.00;0.50;;;;;;;;;;5072321;28;20221;-62
2021/06/07 14:45:33;;;;;;;2.27;1.40;;;;;;;;;;5072003;28;20593;-62
2021/06/07 14:48:01;;;;;;;3.20;0.20;;;;;;;;;;5073092;28;20274;-64
2021/06/07 14:50:28;;;;;;;0.00;0.00;;;;;;;;;;5072341;28;20501;-64
2021/06/07 14:52:54;;;;;;;0.00;0.00;;;;;;;;;;5072504;28;20285;-62
2021/06/07 14:55:23;;;;;;;0.00;0.00;;;;;;;;;;5072681;28;20210;-62
2021/06/07 14:57:50;;;;;;;0.43;0.43;;;;;;;;;;5072251;28;20818;-62
2021/06/07 15:00:17;;;;;;;0.03;0.03;;;;;;;;;;5072470;28;20417;-64
2021/06/07 15:02:44;;;;;;;1.40;0.73;;;;;;;;;;5072279;28;20266;-64
2021/06/07 15:05:11;;;;;;;0.00;0.00;;;;;;;;;;5071493;28;20225;-63
2021/06/07 15:07:37;;;;;;;24.07;1.23;;;;;;;;;;5070521;28;20269;-63
2021/06/07 15:10:05;;;;;;;0.00;0.00;;;;;;;;;;5071899;28;20652;-63
2021/06/07 15:12:35;;;;;;;1.47;1.33;;;;;;;;;;5072244;28;20240;-63
2021/06/07 15:15:02;;;;;;;0.03;0.03;;;;;;;;;;5069853;28;20655;-63
2021/06/07 15:17:28;;;;;;;0.33;0.33;;;;;;;;;;5058497;28;20648;-63
2021/06/07 15:19:55;;;;;;;0.10;0.10;;;;;;;;;;5058575;28;20571;-63
2021/06/07 15:22:21;;;;;;;0.00;0.00;;;;;;;;;;5057343;28;20217;-64
2021/06/07 15:24:48;;;;;;;15.77;1.13;;;;;;;;;;5058400;28;20232;-64
2021/06/07 15:27:14;;;;;;;3.70;0.70;;;;;;;;;;5057698;28;20504;-64
2021/06/07 15:29:43;;;;;;;9.13;1.20;;;;;;;;;;5058169;28;20218;-64
2021/06/07 15:32:10;;;;;;;1.50;1.40;;;;;;;;;;5056403;28;20191;-64
2021/06/07 15:34:37;;;;;;;4.43;0.87;;;;;;;;;;5057582;28;20226;-64
2021/06/07 15:37:03;;;;;;;0.93;0.47;;;;;;;;;;5057347;28;20364;-64
2021/06/07 15:39:35;;;;;;;1.43;0.80;;;;;;;;;;5057352;28;20183;-64
2021/06/07 15:42:01;;;;;;;0.50;0.40;;;;;;;;;;5056993;28;20191;-65
2021/06/07 15:44:28;;;;;;;6.53;0.60;;;;;;;;;;5056691;28;20202;-64
2021/06/07 15:46:55;;;;;;;4.33;1.13;;;;;;;;;;5054856;28;20480;-64
2021/06/07 15:49:21;;;;;;;3.30;1.70;;;;;;;;;;5058346;28;20196;-64
2021/06/07 15:51:49;;;;;;;4.73;2.30;;;;;;;;;;5057677;28;20198;-63
2021/06/07 15:54:16;;;;;;;0.40;0.10;;;;;;;;;;5057509;28;20200;-63
2021/06/07 15:56:42;;;;;;;0.00;0.00;;;;;;;;;;5057227;28;21186;-63
2021/06/07 15:59:14;;;;;;;3.30;0.87;;;;;;;;;;5058167;28;20186;-63
2021/06/07 16:01:40;;;;;;;2.63;1.40;;;;;;;;;;5056447;28;20564;-63
2021/06/07 16:04:07;;;;;;;4.03;1.13;;;;;;;;;;5056696;28;20258;-63
2021/06/07 16:06:35;;;;;;;0.00;0.00;;;;;;;;;;5056292;28;20522;-63
2021/06/07 16:09:08;;;;;;;1.83;0.33;;;;;;;;;;5057810;28;20645;-63
2021/06/07 16:11:37;;;;;;;5.47;1.40;;;;;;;;;;5057337;28;20202;-63
2021/06/07 16:14:04;;;;;;;2.43;0.10;;;;;;;;;;5057299;28;21064;-63
2021/06/07 16:16:39;;;;;;;4.13;0.87;;;;;;;;;;5056492;28;20195;-63
2021/06/07 16:19:09;;;;;;;1.47;1.30;;;;;;;;;;5058095;28;20186;-63
2021/06/07 16:21:39;;;;;;;0.00;0.00;;;;;;;;;;5057569;28;20652;-63
2021/06/07 16:24:07;;;;;;;0.93;0.93;;;;;;;;;;5057578;28;20228;-63
2021/06/07 16:26:35;;;;;;;1.10;0.80;;;;;;;;;;5056892;28;20225;-63
2021/06/07 16:29:02;;;;;;;0.87;0.83;;;;;;;;;;5056687;28;20642;-63
2021/06/07 16:31:29;;;;;;;1.50;0.33;;;;;;;;;;5057389;28;21288;-63
2021/06/07 16:33:56;;;;;;;1.90;0.40;;;;;;;;;;5057402;28;20179;-63
2021/06/07 16:36:23;;;;;;;5.43;0.77;;;;;;;;;;5056079;28;20190;-63
2021/06/07 16:38:50;;;;;;;5.73;1.10;;;;;;;;;;5057279;28;20316;-63
2021/06/07 16:41:17;;;;;;;0.37;0.10;;;;;;;;;;5057023;28;20279;-63
2021/06/07 16:43:43;;;;;;;0.00;0.00;;;;;;;;;;5056389;28;20179;-63
2021/06/07 16:46:10;;;;;;;5.97;1.37;;;;;;;;;;5056652;28;20207;-63
2021/06/07 16:48:36;;;;;;;1.83;1.23;;;;;;;;;;5056740;28;20474;-63
2021/06/07 16:51:03;;;;;;;0.47;0.10;;;;;;;;;;5056441;28;20183;-63
2021/06/07 16:53:34;;;;;;;0.00;0.00;;;;;;;;;;5056096;28;20234;-63
2021/06/07 16:56:04;;;;;;;0.17;0.10;;;;;;;;;;5056322;28;20200;-63
2021/06/07 16:58:31;;;;;;;0.47;0.30;;;;;;;;;;5056289;28;20188;-63
2021/06/07 17:00:58;;;;;;;0.10;0.10;;;;;;;;;;5056311;28;20198;-63
2021/06/07 17:03:24;;;;;;;0.00;0.00;;;;;;;;;;5054891;28;20190;-63
2021/06/07 17:05:51;;;;;;;2.90;0.73;;;;;;;;;;5055908;28;20309;-63
2021/06/07 17:08:17;;;;;;;10.27;1.73;;;;;;;;;;5055695;28;20274;-63
2021/06/07 17:10:45;;;;;;;4.23;1.90;;;;;;;;;;5055382;28;20471;-63
2021/06/07 17:13:15;;;;;;;1.73;0.37;;;;;;;;;;5056878;28;20183;-63
2021/06/07 17:15:42;;;;;;;0.00;0.00;;;;;;;;;;5056440;28;20234;-63
2021/06/07 17:18:09;;;;;;;2.87;1.63;;;;;;;;;;5056187;28;20259;-63
2021/06/07 17:20:39;;;;;;;0.57;0.40;;;;;;;;;;5055671;28;20201;-63
2021/06/07 17:23:08;;;;;;;0.40;0.40;;;;;;;;;;5056088;28;20190;-63
2021/06/07 17:25:35;;;;;;;1.67;0.80;;;;;;;;;;5054436;28;20221;-63
2021/06/07 17:28:02;;;;;;;0.13;0.13;;;;;;;;;;5056963;28;20193;-63
2021/06/07 17:30:28;;;;;;;0.77;0.77;;;;;;;;;;5056629;28;20738;-63
2021/06/07 17:32:55;;;;;;;7.63;1.80;;;;;;;;;;5054346;28;20501;-63
2021/06/07 17:35:24;;;;;;;0.20;0.20;;;;;;;;;;5054031;28;20254;-63
2021/06/07 17:37:50;;;;;;;0.00;0.00;;;;;;;;;;5056787;28;20693;-63
2021/06/07 17:40:17;;;;;;;0.10;0.10;;;;;;;;;;5055900;28;20572;-63
2021/06/07 17:42:46;;;;;;;4.20;0.93;;;;;;;;;;5056593;28;20201;-63
2021/06/07 17:45:13;;;;;;;0.13;0.13;;;;;;;;;;5055919;28;20423;-63
2021/06/07 17:47:40;;;;;;;2.67;0.40;;;;;;;;;;5056301;28;20571;-63
2021/06/07 17:50:09;;;;;;;0.73;0.47;;;;;;;;;;5056192;28;20198;-63
2021/06/07 17:52:37;;;;;;;3.80;1.57;;;;;;;;;;5056637;28;20187;-63
2021/06/07 17:55:04;;;;;;;1.07;0.10;;;;;;;;;;5056160;28;20644;-63
2021/06/07 17:57:30;;;;;;;4.63;1.00;;;;;;;;;;5056255;28;20914;-63
2021/06/07 17:59:57;;;;;;;0.97;0.60;;;;;;;;;;5056539;28;20195;-63
2021/06/07 18:02:23;;;;;;;0.63;0.27;;;;;;;;;;5056333;28;20264;-63
2021/06/07 18:04:50;;;;;;;0.63;0.23;;;;;;;;;;5055947;28;20231;-63
2021/06/07 18:07:18;;;;;;;0.47;0.20;;;;;;;;;;5056420;28;20178;-63
2021/06/07 18:09:45;;;;;;;0.60;0.37;;;;;;;;;;5055592;28;20186;-63
2021/06/07 18:12:11;;;;;;;4.23;0.53;;;;;;;;;;5056667;28;20190;-63
2021/06/07 18:14:38;;;;;;;5.63;1.03;;;;;;;;;;5054776;28;20509;-63
2021/06/07 18:17:07;;;;;;;5.30;1.07;;;;;;;;;;5056060;28;20204;-63
2021/06/07 18:19:36;;;;;;;4.77;2.73;;;;;;;;;;5056131;28;20507;-63
2021/06/07 18:22:02;;;;;;;0.77;0.57;;;;;;;;;;5055855;28;20306;-63
2021/06/07 18:24:31;;;;;;;1.10;0.47;;;;;;;;;;5056492;28;20407;-63
2021/06/07 18:26:58;;;;;;;6.07;2.07;;;;;;;;;;5055588;28;20189;-64
2021/06/07 18:29:24;;;;;;;6.07;0.70;;;;;;;;;;5055611;28;20288;-63
2021/06/07 18:31:51;;;;;;;6.07;5.10;;;;;;;;;;5055333;28;20211;-63
2021/06/07 18:34:18;;;;;;;1.90;0.20;;;;;;;;;;5056071;28;20860;-63
2021/06/07 18:36:45;;;;;;;0.00;0.00;;;;;;;;;;5056450;28;20937;-63
2021/06/07 18:39:14;;;;;;;0.47;0.33;;;;;;;;;;5057781;28;20267;-63
2021/06/07 18:41:41;;;;;;;0.90;0.10;;;;;;;;;;5061175;28;20191;-63
2021/06/07 18:46:50;;;;;;;2.47;1.03;;;;;;;;;;3146438;22;20235;-67
2021/06/07 18:49:17;;;;;;;0.77;0.37;;;;;;;;;;5035890;28;20180;-67
2021/06/07 18:51:43;;;;;;;0.00;0.00;;;;;;;;;;5036277;28;20191;-67
2021/06/07 18:54:10;;;;;;;0.23;0.23;;;;;;;;;;5041064;28;20812;-66
2021/06/07 18:56:37;;;;;;;0.00;0.00;;;;;;;;;;5040294;28;20191;-67
2021/06/07 18:59:04;;;;;;;0.00;0.00;;;;;;;;;;5038532;28;20199;-66
2021/06/07 19:01:31;;;;;;;0.97;0.73;;;;;;;;;;5041361;28;20210;-67
2021/06/07 19:03:58;;;;;;;0.13;0.13;;;;;;;;;;5036786;28;20212;-66
2021/06/07 19:06:24;;;;;;;0.00;0.00;;;;;;;;;;5035941;28;20211;-66
2021/06/07 19:08:51;;;;;;;1.47;1.03;;;;;;;;;;5041115;28;20635;-66
2021/06/07 19:11:17;;;;;;;0.20;0.20;;;;;;;;;;5037695;28;20192;-66
2021/06/07 19:13:46;;;;;;;2.43;0.63;;;;;;;;;;5040353;28;20176;-67
2021/06/07 19:16:12;;;;;;;0.00;0.00;;;;;;;;;;5039616;28;20233;-66
2021/06/07 19:18:39;;;;;;;1.00;0.50;;;;;;;;;;5040900;28;20298;-66
2021/06/07 19:21:07;;;;;;;2.47;2.27;;;;;;;;;;5039500;28;20602;-66
2021/06/07 19:23:34;;;;;;;0.10;0.10;;;;;;;;;;5039549;28;20195;-66
2021/06/07 19:26:00;;;;;;;0.27;0.20;;;;;;;;;;5039897;28;20225;-69
2021/06/07 19:28:27;;;;;;;5.30;4.40;;;;;;;;;;5036906;28;20198;-66
2021/06/07 19:30:54;;;;;;;0.20;0.20;;;;;;;;;;5033499;28;20264;-66
2021/06/07 19:33:20;;;;;;;1.23;0.60;;;;;;;;;;5036075;28;20196;-66
2021/06/07 19:35:48;;;;;;;8.83;8.00;;;;;;;;;;5039301;28;20666;-66
2021/06/07 19:38:15;;;;;;;7.83;3.10;;;;;;;;;;5038232;28;20695;-65
2021/06/07 19:40:41;;;;;;;1.10;0.87;;;;;;;;;;5040404;28;20268;-71
2021/06/07 19:43:08;;;;;;;0.00;0.00;;;;;;;;;;5036300;28;20195;-66
2021/06/07 19:45:35;;;;;;;12.40;0.83;;;;;;;;;;5038791;28;20226;-67
2021/06/07 19:48:01;;;;;;;0.83;0.80;;;;;;;;;;5038121;28;20230;-65
2021/06/07 19:50:28;;;;;;;4.80;1.07;;;;;;;;;;5037741;28;20184;-70
2021/06/07 19:52:56;;;;;;;0.10;0.10;;;;;;;;;;5030951;28;21216;-67
2021/06/07 19:55:45;;;;;;;19.40;2.63;;;;;;;;;;5033622;28;20702;-68
2021/06/07 19:58:10;;;;;;;4.80;0.63;;;;;;;;;;5035643;28;20183;-68
2021/06/07 20:00:36;;;;;;;0.10;0.10;;;;;;;;;;5030649;28;20194;-68
2021/06/07 20:03:05;;;;;;;0.73;0.33;;;;;;;;;;5028477;28;20221;-68
2021/06/07 20:05:34;;;;;;;0.00;0.00;;;;;;;;;;5025900;28;20215;-69
2021/06/07 20:08:01;;;;;;;0.63;0.40;;;;;;;;;;5028540;28;22652;-68
2021/06/07 20:10:29;;;;;;;0.50;0.50;;;;;;;;;;5027085;28;20190;-69
2021/06/07 20:12:55;;;;;;;0.43;0.10;;;;;;;;;;5027814;28;20211;-67
2021/06/07 20:15:22;;;;;;;1.43;1.43;;;;;;;;;;5028874;28;20203;-69
2021/06/07 20:17:49;;;;;;;0.10;0.10;;;;;;;;;;5030062;28;20635;-71
2021/06/07 20:20:16;;;;;;;0.00;0.00;;;;;;;;;;5025059;28;20196;-67
2021/06/07 20:22:43;;;;;;;0.77;0.57;;;;;;;;;;5031188;28;21202;-67
2021/06/07 20:25:14;;;;;;;8.83;1.07;;;;;;;;;;5028208;28;20718;-70
2021/06/07 20:27:43;;;;;;;0.10;0.10;;;;;;;;;;5028656;28;20191;-67
2021/06/07 20:30:14;;;;;;;3.73;1.17;;;;;;;;;;5027651;28;20194;-72
2021/06/07 20:32:44;;;;;;;1.43;1.00;;;;;;;;;;5028347;28;20293;-69
2021/06/07 20:35:12;;;;;;;3.90;0.30;;;;;;;;;;5029565;28;20265;-70
2021/06/07 20:37:39;;;;;;;0.00;0.00;;;;;;;;;;5027997;28;20285;-71
2021/06/07 20:40:06;;;;;;;0.20;0.20;;;;;;;;;;5029451;28;20195;-69
2021/06/07 20:42:33;;;;;;;0.00;0.00;;;;;;;;;;5028840;28;20188;-69
2021/06/07 20:47:47;;;;;;;3.60;1.23;;;;;;;;;;5045954;23;20235;-69
2021/06/07 20:50:17;;;;;;;0.00;0.00;;;;;;;;;;5036884;28;20295;-68
2021/06/07 20:52:43;;;;;;;3.40;1.40;;;;;;;;;;5036317;28;20182;-67
2021/06/07 20:55:10;;;;;;;0.10;0.10;;;;;;;;;;5035124;28;20420;-65
2021/06/07 20:57:37;;;;;;;0.00;0.00;;;;;;;;;;5037323;28;20175;-66
2021/06/07 21:00:05;;;;;;;3.10;0.13;;;;;;;;;;5038953;28;21076;-65
2021/06/07 21:02:32;;;;;;;0.00;0.00;;;;;;;;;;5033722;28;20191;-65
2021/06/07 21:04:58;;;;;;;0.00;0.00;;;;;;;;;;5035590;28;20182;-64
2021/06/07 21:07:25;;;;;;;0.50;0.50;;;;;;;;;;5037439;28;20175;-64
2021/06/07 21:09:54;;;;;;;0.00;0.00;;;;;;;;;;5038298;28;20285;-65
2021/06/07 21:12:21;;;;;;;0.00;0.00;;;;;;;;;;5035342;28;20205;-65
2021/06/07 21:14:48;;;;;;;1.03;0.60;;;;;;;;;;5038589;28;20741;-65
2021/06/07 21:17:14;;;;;;;8.30;3.60;;;;;;;;;;5038887;28;20181;-65
2021/06/07 21:19:41;;;;;;;2.63;2.43;;;;;;;;;;5037584;28;20221;-64
2021/06/07 21:22:07;;;;;;;8.10;0.63;;;;;;;;;;5038211;28;20178;-64
2021/06/07 21:24:36;;;;;;;0.00;0.00;;;;;;;;;;5039434;28;20631;-64
2021/06/07 21:27:03;;;;;;;4.23;2.83;;;;;;;;;;5038571;28;20592;-65
2021/06/07 21:29:30;;;;;;;0.03;0.03;;;;;;;;;;5039111;28;20175;-65
2021/06/07 21:31:57;;;;;;;0.00;0.00;;;;;;;;;;5037927;28;20269;-65
2021/06/07 21:34:32;;;;;;;1.33;0.20;;;;;;;;;;5038839;28;20174;-65
2021/06/07 21:37:00;;;;;;;0.10;0.10;;;;;;;;;;5038615;28;20193;-66
2021/06/07 21:39:26;;;;;;;1.87;0.73;;;;;;;;;;5035349;28;20202;-65
2021/06/07 21:41:53;;;;;;;0.97;0.63;;;;;;;;;;5037112;28;20244;-65
2021/06/07 21:44:19;;;;;;;24.23;4.80;;;;;;;;;;5038075;28;20326;-65
2021/06/07 21:46:46;;;;;;;0.00;0.00;;;;;;;;;;5033919;28;20265;-65
2021/06/07 21:49:15;;;;;;;0.30;0.30;;;;;;;;;;5031391;28;20183;-66
2021/06/07 21:51:41;;;;;;;3.80;0.30;;;;;;;;;;5033161;28;20187;-66
2021/06/07 21:54:08;;;;;;;0.00;0.00;;;;;;;;;;5037607;28;20182;-65
2021/06/07 21:56:38;;;;;;;0.00;0.00;;;;;;;;;;5031368;28;20198;-65
2021/06/07 21:59:09;;;;;;;0.20;0.20;;;;;;;;;;5036085;28;20186;-66
2021/06/07 22:01:35;;;;;;;0.00;0.00;;;;;;;;;;5033988;28;20198;-66
2021/06/07 22:04:07;;;;;;;0.20;0.20;;;;;;;;;;5031513;28;20174;-66
2021/06/07 22:06:33;;;;;;;0.00;0.00;;;;;;;;;;5032133;28;20199;-66
2021/06/07 22:09:01;;;;;;;14.07;13.13;;;;;;;;;;5032488;28;20213;-66
2021/06/07 22:11:27;;;;;;;0.00;0.00;;;;;;;;;;5031162;28;20174;-66
2021/06/07 22:13:56;;;;;;;0.37;0.37;;;;;;;;;;5032658;28;20191;-66
2021/06/07 22:16:23;;;;;;;0.73;0.73;;;;;;;;;;5033169;28;20193;-66
2021/06/07 22:18:51;;;;;;;0.20;0.20;;;;;;;;;;5034144;28;20196;-65
2021/06/07 22:21:18;;;;;;;0.00;0.00;;;;;;;;;;5032803;28;20190;-65
2021/06/07 22:23:45;;;;;;;0.17;0.10;;;;;;;;;;5035829;28;20179;-66
2021/06/07 22:26:15;;;;;;;0.10;0.10;;;;;;;;;;5034265;28;20198;-66
2021/06/07 22:28:43;;;;;;;6.70;1.37;;;;;;;;;;5039987;28;20178;-66
2021/06/07 22:31:09;;;;;;;0.00;0.00;;;;;;;;;;5033844;28;20178;-66
2021/06/07 22:33:36;;;;;;;0.00;0.00;;;;;;;;;;5033891;28;20191;-66
2021/06/07 22:36:03;;;;;;;0.00;0.00;;;;;;;;;;5032194;28;20927;-67
2021/06/07 22:38:29;;;;;;;0.00;0.00;;;;;;;;;;5034684;28;20181;-67
2021/06/07 22:40:56;;;;;;;0.00;0.00;;;;;;;;;;5033529;28;21016;-67
2021/06/07 22:43:22;;;;;;;0.00;0.00;;;;;;;;;;5034162;28;20268;-67
2021/06/07 22:45:49;;;;;;;0.00;0.00;;;;;;;;;;5033446;28;20606;-67
2021/06/07 22:48:15;;;;;;;0.27;0.23;;;;;;;;;;5033185;28;20175;-67
2021/06/07 22:50:42;;;;;;;0.00;0.00;;;;;;;;;;5035895;28;20178;-66
2021/06/07 22:53:11;;;;;;;0.00;0.00;;;;;;;;;;5035319;28;20228;-66
2021/06/07 22:55:37;;;;;;;0.40;0.17;;;;;;;;;;5033908;28;20190;-67
2021/06/07 22:58:04;;;;;;;3.80;2.47;;;;;;;;;;5034988;28;20197;-67
2021/06/07 23:00:33;;;;;;;2.13;0.40;;;;;;;;;;5033081;28;20542;-67
2021/06/07 23:03:00;;;;;;;1.83;0.70;;;;;;;;;;5032370;28;20245;-67
2021/06/07 23:05:26;;;;;;;0.10;0.10;;;;;;;;;;5031949;28;20629;-67
2021/06/07 23:07:53;;;;;;;0.00;0.00;;;;;;;;;;5035892;28;20181;-67
2021/06/07 23:10:22;;;;;;;3.10;0.30;;;;;;;;;;5033700;28;20221;-66
2021/06/07 23:12:49;;;;;;;0.43;0.37;;;;;;;;;;5034398;28;20197;-67
2021/06/07 23:15:21;;;;;;;0.00;0.00;;;;;;;;;;5037324;28;20542;-67
2021/06/07 23:17:50;;;;;;;0.40;0.40;;;;;;;;;;5031516;28;21459;-67
2021/06/07 23:20:16;;;;;;;0.27;0.27;;;;;;;;;;5031799;28;20213;-67
2021/06/07 23:22:48;;;;;;;0.50;0.50;;;;;;;;;;5033536;28;21646;-67
2021/06/07 23:25:14;;;;;;;3.40;1.90;;;;;;;;;;5032360;28;20186;-66
2021/06/07 23:27:41;;;;;;;1.50;1.50;;;;;;;;;;5034611;28;20209;-67
2021/06/07 23:30:08;;;;;;;0.33;0.30;;;;;;;;;;5033945;28;20178;-67
2021/06/07 23:32:34;;;;;;;0.20;0.20;;;;;;;;;;5033046;28;20242;-67
2021/06/07 23:35:03;;;;;;;0.53;0.53;;;;;;;;;;5034095;28;20758;-67
2021/06/07 23:37:32;;;;;;;0.50;0.40;;;;;;;;;;5032184;28;20219;-68
2021/06/07 23:39:59;;;;;;;0.20;0.20;;;;;;;;;;5035106;28;20277;-67
2021/06/07 23:42:28;;;;;;;0.00;0.00;;;;;;;;;;5030998;28;20177;-67
2021/06/07 23:44:54;;;;;;;0.00;0.00;;;;;;;;;;5031329;28;20223;-67
2021/06/07 23:47:23;;;;;;;0.87;0.53;;;;;;;;;;5033345;28;20236;-68
2021/06/07 23:49:50;;;;;;;0.10;0.10;;;;;;;;;;5029411;28;20187;-67
2021/06/07 23:52:17;;;;;;;0.00;0.00;;;;;;;;;;5031818;28;20181;-67
2021/06/07 23:54:53;;;;;;;3.10;0.77;;;;;;;;;;5035345;28;20650;-67
2021/06/07 23:57:22;;;;;;;0.60;0.60;;;;;;;;;;5033017;28;20201;-67
2021/06/07 23:59:50;;;;;;;2.17;1.27;;;;;;;;;;5031919;28;20465;-67
